Terminal Aerodrome Forecast
Issued by NWS

Home | Current Version | Previous Version | Text Only | Print | Product List | Glossary On
Versions: 1 2 3 4 5 6 7 8 9 10 11 12 13 14 15 16 17
312
FTUS44 KLZK 261740
TAFLIT
TAF
KLIT 261740Z 2618/2718 19012G22KT P6SM SCT015 OVC030 WS020/22040KT
      TEMPO 2618/2622 OVC015
     FM270100 20006KT P6SM BKN025 OVC050
     FM270600 19006KT P6SM VCSH OVC025
     FM271200 22008KT P6SM BKN007 OVC015=

USA.gov is the U.S. government's official web portal to all federal, state and local government web resources and services.